Time,TemperatureF,DewpointF,PressureIn,WindDirection,WindDirectionDegrees,WindSpeedMPH,WindSpeedGustMPH,Humidity,HourlyPrecipIn,Conditions,Clouds,dailyrainin,SoftwareType,DateUTC
2013-03-19 00:00:00,42.8,39.5,29.84,SE,135,1.6,1.8,88,0.04,,,0.00,WUHU216HW,2013-03-19 04:00:00,
2013-03-19 00:01:00,42.8,39.5,29.84,SE,135,0.7,1.8,88,0.04,,,0.00,WUHU216HW,2013-03-19 04:01:00,
2013-03-19 00:06:00,42.8,39.5,29.82,ESE,113,1.8,1.8,88,0.04,,,0.00,WUHU216HW,2013-03-19 04:06:00,
2013-03-19 00:11:00,42.8,39.5,29.82,SE,135,0.7,1.8,88,0.04,,,0.00,WUHU216HW,2013-03-19 04:11:00,
2013-03-19 00:16:00,42.8,39.5,29.81,SE,135,1.3,1.8,88,0.03,,,0.00,WUHU216HW,2013-03-19 04:16:00,
2013-03-19 00:21:00,42.8,39.5,29.82,SSE,158,1.1,1.8,88,0.02,,,0.00,WUHU216HW,2013-03-19 04:21:00,
2013-03-19 00:25:00,42.8,39.5,29.80,SE,135,1.1,2.5,88,0.02,,,0.00,WUHU216HW,2013-03-19 04:25:00,
2013-03-19 00:30:00,42.8,39.5,29.80,ESE,113,0.4,2.5,88,0.02,,,0.00,WUHU216HW,2013-03-19 04:30:00,
2013-03-19 00:36:00,42.8,39.5,29.81,SSE,158,0.7,2.2,88,0.02,,,0.00,WUHU216HW,2013-03-19 04:36:00,
2013-03-19 00:41:00,42.8,39.5,29.81,SSE,158,1.8,1.8,88,0.01,,,0.00,WUHU216HW,2013-03-19 04:41:00,
2013-03-19 00:46:00,42.8,39.5,29.82,SE,135,0.2,1.8,88,0.01,,,0.00,WUHU216HW,2013-03-19 04:46:00,
2013-03-19 00:50:00,43.0,39.7,29.82,SE,135,0.7,1.8,88,0.01,,,0.00,WUHU216HW,2013-03-19 04:50:00,
2013-03-19 00:56:00,43.0,39.7,29.82,NNW,338,1.1,1.1,88,0.00,,,0.00,WUHU216HW,2013-03-19 04:56:00,
2013-03-19 01:01:00,42.8,39.9,29.82,North,0,1.1,1.8,89,0.00,,,0.00,WUHU216HW,2013-03-19 05:01:00,
2013-03-19 01:06:00,42.8,39.9,29.80,NE,45,0.2,1.8,89,0.00,,,0.00,WUHU216HW,2013-03-19 05:06:00,
2013-03-19 01:11:00,42.8,39.9,29.81,NNW,338,0.2,1.1,89,0.00,,,0.00,WUHU216HW,2013-03-19 05:11:00,
2013-03-19 01:16:00,42.8,39.9,29.81,NW,315,0.4,1.1,89,0.00,,,0.00,WUHU216HW,2013-03-19 05:16:00,
2013-03-19 01:20:00,42.8,40.1,29.81,NNW,338,0.7,1.6,90,0.00,,,0.00,WUHU216HW,2013-03-19 05:20:00,
2013-03-19 01:26:00,42.8,40.1,29.81,NNE,23,0.4,1.6,90,0.00,,,0.00,WUHU216HW,2013-03-19 05:26:00,
2013-03-19 01:31:00,42.8,40.1,29.80,NNW,338,0.7,1.8,90,0.00,,,0.00,WUHU216HW,2013-03-19 05:31:00,
2013-03-19 01:36:00,42.8,40.1,29.82,NW,315,1.6,1.8,90,0.00,,,0.00,WUHU216HW,2013-03-19 05:36:00,
2013-03-19 01:41:00,42.8,40.1,29.81,NNW,338,0.7,1.8,90,0.00,,,0.00,WUHU216HW,2013-03-19 05:41:00,
2013-03-19 01:46:00,42.8,40.1,29.81,North,0,1.1,1.8,90,0.00,,,0.00,WUHU216HW,2013-03-19 05:46:00,
2013-03-19 01:51:00,42.8,40.1,29.81,NNW,338,1.1,1.8,90,0.00,,,0.00,WUHU216HW,2013-03-19 05:51:00,
2013-03-19 01:56:00,42.8,40.1,29.81,NNE,23,0.0,1.8,90,0.00,,,0.00,WUHU216HW,2013-03-19 05:56:00,
2013-03-19 02:01:00,42.8,40.1,29.82,WNW,293,1.1,2.2,90,0.00,,,0.00,WUHU216HW,2013-03-19 06:01:00,
2013-03-19 02:06:00,42.8,40.1,29.82,NW,315,0.7,2.2,90,0.00,,,0.00,WUHU216HW,2013-03-19 06:06:00,
2013-03-19 02:11:00,42.8,40.1,29.82,NW,315,0.9,1.8,90,0.00,,,0.00,WUHU216HW,2013-03-19 06:11:00,
2013-03-19 02:16:00,42.5,39.8,29.82,NW,315,0.7,2.0,90,0.00,,,0.00,WUHU216HW,2013-03-19 06:16:00,
2013-03-19 02:21:00,42.5,39.8,29.82,NW,315,0.7,2.0,90,0.00,,,0.00,WUHU216HW,2013-03-19 06:21:00,
2013-03-19 02:26:00,42.5,39.8,29.81,North,0,0.4,1.3,90,0.00,,,0.00,WUHU216HW,2013-03-19 06:26:00,
2013-03-19 02:31:00,42.3,39.6,29.81,North,0,0.7,3.1,90,0.00,,,0.00,WUHU216HW,2013-03-19 06:31:00,
2013-03-19 02:36:00,42.1,39.4,29.80,North,0,0.7,3.1,90,0.00,,,0.00,WUHU216HW,2013-03-19 06:36:00,
2013-03-19 02:41:00,42.1,39.4,29.80,North,0,0.7,1.3,90,0.00,,,0.00,WUHU216HW,2013-03-19 06:41:00,
2013-03-19 02:46:00,42.3,39.6,29.80,NE,45,0.0,0.7,90,0.00,,,0.00,WUHU216HW,2013-03-19 06:46:00,
2013-03-19 02:51:00,42.3,39.6,29.79,NNE,23,0.2,0.7,90,0.00,,,0.00,WUHU216HW,2013-03-19 06:51:00,
2013-03-19 02:56:00,42.3,39.6,29.79,NNE,23,0.2,0.4,90,0.00,,,0.00,WUHU216HW,2013-03-19 06:56:00,
2013-03-19 03:01:00,42.5,39.8,29.79,NE,45,0.0,0.4,90,0.00,,,0.00,WUHU216HW,2013-03-19 07:01:00,
2013-03-19 03:06:00,42.5,39.8,29.79,NE,45,0.0,0.4,90,0.00,,,0.00,WUHU216HW,2013-03-19 07:06:00,
2013-03-19 03:11:00,42.5,39.8,29.78,NE,45,0.0,0.0,90,0.00,,,0.00,WUHU216HW,2013-03-19 07:11:00,
2013-03-19 03:16:00,42.5,39.8,29.77,ESE,113,0.4,0.7,90,0.00,,,0.00,WUHU216HW,2013-03-19 07:16:00,
2013-03-19 03:21:00,42.5,39.8,29.77,North,0,0.0,0.9,90,0.00,,,0.00,WUHU216HW,2013-03-19 07:21:00,
2013-03-19 03:26:00,42.5,39.8,29.78,NNW,338,0.0,0.9,90,0.00,,,0.00,WUHU216HW,2013-03-19 07:26:00,
2013-03-19 03:31:00,42.7,40.0,29.78,NNW,338,0.0,0.9,90,0.00,,,0.00,WUHU216HW,2013-03-19 07:31:00,
2013-03-19 03:36:00,42.5,39.8,29.77,North,0,0.2,1.1,90,0.00,,,0.00,WUHU216HW,2013-03-19 07:36:00,
2013-03-19 03:41:00,42.5,39.8,29.77,North,0,0.0,1.1,90,0.00,,,0.00,WUHU216HW,2013-03-19 07:41:00,
2013-03-19 03:46:00,42.5,39.8,29.77,NNW,338,0.0,0.4,90,0.00,,,0.00,WUHU216HW,2013-03-19 07:46:00,
2013-03-19 03:51:00,42.7,40.0,29.77,WNW,293,0.4,1.1,90,0.00,,,0.00,WUHU216HW,2013-03-19 07:51:00,
2013-03-19 03:56:00,42.7,40.0,29.78,NW,315,0.4,1.1,90,0.00,,,0.00,WUHU216HW,2013-03-19 07:56:00,
2013-03-19 04:01:00,42.7,40.0,29.77,North,0,0.0,1.1,90,0.00,,,0.00,WUHU216HW,2013-03-19 08:01:00,
2013-03-19 04:06:00,42.5,39.8,29.77,NW,315,0.0,1.1,90,0.00,,,0.00,WUHU216HW,2013-03-19 08:06:00,
2013-03-19 04:11:00,42.5,39.8,29.78,WNW,293,0.7,1.1,90,0.00,,,0.00,WUHU216HW,2013-03-19 08:11:00,
2013-03-19 04:16:00,42.5,39.8,29.77,WNW,293,1.3,1.3,90,0.00,,,0.00,WUHU216HW,2013-03-19 08:16:00,
2013-03-19 04:21:00,42.5,39.5,29.77,North,0,0.7,1.6,89,0.00,,,0.00,WUHU216HW,2013-03-19 08:21:00,
2013-03-19 04:26:00,42.3,39.3,29.77,NNW,338,0.9,1.6,89,0.00,,,0.00,WUHU216HW,2013-03-19 08:26:00,
2013-03-19 04:31:00,42.1,39.2,29.77,NNW,338,0.0,1.6,89,0.00,,,0.00,WUHU216HW,2013-03-19 08:31:00,
2013-03-19 04:36:00,42.1,39.2,29.77,NW,315,1.1,1.8,89,0.00,,,0.00,WUHU216HW,2013-03-19 08:36:00,
2013-03-19 04:41:00,42.1,39.2,29.77,North,0,0.2,1.8,89,0.00,,,0.00,WUHU216HW,2013-03-19 08:41:00,
2013-03-19 04:46:00,42.1,39.4,29.77,NW,315,0.4,1.1,90,0.00,,,0.00,WUHU216HW,2013-03-19 08:46:00,
2013-03-19 04:51:00,42.1,39.4,29.77,North,0,0.4,1.6,90,0.00,,,0.00,WUHU216HW,2013-03-19 08:51:00,
2013-03-19 04:56:00,42.1,39.4,29.77,NW,315,0.4,2.0,90,0.00,,,0.00,WUHU216HW,2013-03-19 08:56:00,
2013-03-19 05:01:00,41.9,39.2,29.77,NW,315,0.7,2.0,90,0.00,,,0.00,WUHU216HW,2013-03-19 09:01:00,
2013-03-19 05:06:00,41.8,39.1,29.78,NW,315,1.1,2.0,90,0.00,,,0.00,WUHU216HW,2013-03-19 09:06:00,
2013-03-19 05:11:00,41.9,39.2,29.79,NW,315,0.9,2.0,90,0.00,,,0.00,WUHU216HW,2013-03-19 09:11:00,
2013-03-19 05:16:00,41.9,39.2,29.79,West,270,1.1,1.8,90,0.00,,,0.00,WUHU216HW,2013-03-19 09:16:00,
2013-03-19 05:21:00,42.1,39.4,29.79,NW,315,1.8,1.8,90,0.00,,,0.00,WUHU216HW,2013-03-19 09:21:00,
2013-03-19 05:26:00,41.9,39.2,29.79,NNW,338,0.7,1.8,90,0.00,,,0.00,WUHU216HW,2013-03-19 09:26:00,
2013-03-19 05:31:00,41.9,39.2,29.78,WNW,293,0.0,1.8,90,0.00,,,0.00,WUHU216HW,2013-03-19 09:31:00,
2013-03-19 05:36:00,42.1,39.4,29.79,WNW,293,1.1,1.6,90,0.00,,,0.00,WUHU216HW,2013-03-19 09:36:00,
2013-03-19 05:41:00,42.1,39.4,29.79,NW,315,0.4,1.6,90,0.00,,,0.00,WUHU216HW,2013-03-19 09:41:00,
2013-03-19 05:46:00,42.1,39.4,29.79,NNW,338,0.4,1.1,90,0.00,,,0.00,WUHU216HW,2013-03-19 09:46:00,
2013-03-19 05:51:00,42.1,39.4,29.79,WNW,293,0.0,0.9,90,0.00,,,0.00,WUHU216HW,2013-03-19 09:51:00,
2013-03-19 05:56:00,42.1,39.4,29.79,West,270,1.1,1.1,90,0.00,,,0.00,WUHU216HW,2013-03-19 09:56:00,
2013-03-19 06:01:00,42.1,39.4,29.79,West,270,0.0,1.1,90,0.00,,,0.00,WUHU216HW,2013-03-19 10:01:00,
2013-03-19 06:06:00,42.3,39.6,29.79,West,270,0.0,1.1,90,0.00,,,0.00,WUHU216HW,2013-03-19 10:06:00,
2013-03-19 06:11:00,42.3,39.3,29.79,SSW,203,0.0,0.2,89,0.00,,,0.00,WUHU216HW,2013-03-19 10:11:00,
2013-03-19 06:16:00,42.3,39.3,29.79,WNW,293,0.2,0.4,89,0.00,,,0.00,WUHU216HW,2013-03-19 10:16:00,
2013-03-19 06:21:00,42.3,39.3,29.79,WNW,293,0.2,0.4,89,0.00,,,0.00,WUHU216HW,2013-03-19 10:21:00,
2013-03-19 06:26:00,42.5,39.5,29.79,WNW,293,0.0,0.7,89,0.00,,,0.00,WUHU216HW,2013-03-19 10:26:00,
2013-03-19 06:31:00,42.5,39.5,29.79,WSW,248,0.4,0.7,89,0.00,,,0.00,WUHU216HW,2013-03-19 10:31:00,
2013-03-19 06:36:00,42.5,39.5,29.79,SSW,203,0.7,0.7,89,0.00,,,0.00,WUHU216HW,2013-03-19 10:36:00,
2013-03-19 06:41:00,42.5,39.5,29.79,West,270,0.0,1.6,89,0.00,,,0.00,WUHU216HW,2013-03-19 10:41:00,
2013-03-19 06:46:00,42.5,39.5,29.79,SW,225,0.4,1.6,89,0.00,,,0.00,WUHU216HW,2013-03-19 10:46:00,
2013-03-19 06:51:00,42.5,39.5,29.79,SW,225,0.0,1.1,89,0.00,,,0.00,WUHU216HW,2013-03-19 10:51:00,
2013-03-19 06:56:00,42.5,39.5,29.79,SW,225,0.7,1.1,89,0.00,,,0.00,WUHU216HW,2013-03-19 10:56:00,
2013-03-19 07:01:00,42.5,39.8,29.79,WSW,248,1.1,1.8,90,0.00,,,0.00,WUHU216HW,2013-03-19 11:01:00,
2013-03-19 07:06:00,42.5,39.5,29.79,WSW,248,0.2,1.8,89,0.00,,,0.00,WUHU216HW,2013-03-19 11:06:00,
2013-03-19 07:11:00,42.7,39.7,29.79,SE,135,0.2,0.7,89,0.00,,,0.00,WUHU216HW,2013-03-19 11:11:00,
2013-03-19 07:16:00,42.7,39.7,29.79,WSW,248,0.2,0.7,89,0.00,,,0.00,WUHU216HW,2013-03-19 11:16:00,
2013-03-19 07:21:00,42.7,39.7,29.78,SE,135,0.2,0.4,89,0.00,,,0.00,WUHU216HW,2013-03-19 11:21:00,
2013-03-19 07:26:00,42.7,39.7,29.78,SSE,158,0.0,0.4,89,0.00,,,0.00,WUHU216HW,2013-03-19 11:26:00,
2013-03-19 07:31:00,42.7,39.7,29.78,ESE,113,0.4,0.4,89,0.00,,,0.00,WUHU216HW,2013-03-19 11:31:00,
2013-03-19 07:36:00,42.7,39.7,29.77,ESE,113,0.0,0.4,89,0.00,,,0.00,WUHU216HW,2013-03-19 11:36:00,
2013-03-19 07:41:00,42.7,39.7,29.78,ESE,113,0.0,0.4,89,0.00,,,0.00,WUHU216HW,2013-03-19 11:41:00,
2013-03-19 07:46:00,42.8,39.9,29.78,SE,135,0.0,0.2,89,0.00,,,0.00,WUHU216HW,2013-03-19 11:46:00,
2013-03-19 07:51:00,42.8,39.9,29.78,WSW,248,0.4,0.7,89,0.00,,,0.00,WUHU216HW,2013-03-19 11:51:00,
2013-03-19 07:56:00,43.0,40.1,29.78,West,270,0.2,0.9,89,0.00,,,0.00,WUHU216HW,2013-03-19 11:56:00,
2013-03-19 08:01:00,42.8,39.9,29.79,WNW,293,0.0,1.1,89,0.00,,,0.00,WUHU216HW,2013-03-19 12:01:00,
2013-03-19 08:06:00,43.0,40.1,29.79,SW,225,1.1,1.8,89,0.00,,,0.00,WUHU216HW,2013-03-19 12:06:00,
2013-03-19 08:11:00,43.2,40.2,29.80,SW,225,1.3,1.8,89,0.00,,,0.00,WUHU216HW,2013-03-19 12:11:00,
2013-03-19 08:16:00,43.2,40.5,29.80,West,270,0.4,1.6,90,0.00,,,0.00,WUHU216HW,2013-03-19 12:16:00,
2013-03-19 08:21:00,43.2,40.2,29.80,WSW,248,0.4,1.6,89,0.00,,,0.00,WUHU216HW,2013-03-19 12:21:00,
2013-03-19 08:26:00,43.4,40.7,29.81,WSW,248,1.3,2.0,90,0.00,,,0.00,WUHU216HW,2013-03-19 12:26:00,
2013-03-19 08:32:00,43.6,40.9,29.81,WNW,293,0.9,2.0,90,0.00,,,0.00,WUHU216HW,2013-03-19 12:32:00,
2013-03-19 08:37:00,43.6,40.9,29.81,West,270,1.8,1.8,90,0.00,,,0.00,WUHU216HW,2013-03-19 12:37:00,
2013-03-19 08:42:00,43.6,40.9,29.81,WNW,293,2.5,3.4,90,0.00,,,0.00,WUHU216HW,2013-03-19 12:42:00,
2013-03-19 08:47:00,43.7,41.0,29.82,West,270,2.0,3.4,90,0.00,,,0.00,WUHU216HW,2013-03-19 12:47:00,
2013-03-19 08:52:00,43.7,41.0,29.82,West,270,1.3,3.4,90,0.00,,,0.00,WUHU216HW,2013-03-19 12:52:00,
2013-03-19 08:57:00,43.9,41.2,29.82,WNW,293,1.6,3.4,90,0.00,,,0.00,WUHU216HW,2013-03-19 12:57:00,
2013-03-19 09:01:00,44.1,41.4,29.82,WSW,248,1.8,3.6,90,0.00,,,0.00,WUHU216HW,2013-03-19 13:01:00,
2013-03-19 09:07:00,44.3,41.6,29.83,WSW,248,3.4,3.6,90,0.00,,,0.00,WUHU216HW,2013-03-19 13:07:00,
2013-03-19 09:12:00,44.5,41.8,29.83,West,270,1.8,3.4,90,0.00,,,0.00,WUHU216HW,2013-03-19 13:12:00,
2013-03-19 09:17:00,44.6,41.9,29.84,WNW,293,1.8,2.9,90,0.00,,,0.00,WUHU216HW,2013-03-19 13:17:00,
2013-03-19 09:22:00,44.6,42.2,29.84,West,270,1.8,3.1,91,0.00,,,0.00,WUHU216HW,2013-03-19 13:22:00,
2013-03-19 09:27:00,44.8,42.1,29.84,WNW,293,1.6,3.1,90,0.00,,,0.00,WUHU216HW,2013-03-19 13:27:00,
2013-03-19 09:32:00,45.0,42.3,29.84,NW,315,1.1,2.0,90,0.00,,,0.00,WUHU216HW,2013-03-19 13:32:00,
2013-03-19 09:37:00,45.0,42.3,29.84,West,270,2.7,2.9,90,0.00,,,0.00,WUHU216HW,2013-03-19 13:37:00,
2013-03-19 09:42:00,45.2,42.5,29.84,West,270,1.8,2.9,90,0.00,,,0.00,WUHU216HW,2013-03-19 13:42:00,
2013-03-19 09:47:00,45.4,42.7,29.84,NW,315,0.7,2.7,90,0.00,,,0.00,WUHU216HW,2013-03-19 13:47:00,
2013-03-19 09:52:00,45.5,42.8,29.84,West,270,0.9,2.7,90,0.00,,,0.00,WUHU216HW,2013-03-19 13:52:00,
2013-03-19 09:57:00,45.7,43.0,29.84,SSW,203,0.7,2.5,90,0.00,,,0.00,WUHU216HW,2013-03-19 13:57:00,
2013-03-19 10:02:00,45.7,42.8,29.84,South,180,1.8,2.9,89,0.00,,,0.00,WUHU216HW,2013-03-19 14:02:00,
2013-03-19 10:07:00,45.9,42.9,29.84,NW,315,0.2,2.9,89,0.00,,,0.00,WUHU216HW,2013-03-19 14:07:00,
2013-03-19 10:12:00,46.1,43.1,29.85,WSW,248,1.3,2.2,89,0.00,,,0.00,WUHU216HW,2013-03-19 14:12:00,
2013-03-19 10:17:00,46.3,43.3,29.85,WSW,248,1.1,2.2,89,0.00,,,0.00,WUHU216HW,2013-03-19 14:17:00,
2013-03-19 10:22:00,46.4,43.5,29.85,WSW,248,0.9,2.2,89,0.00,,,0.00,WUHU216HW,2013-03-19 14:22:00,
2013-03-19 10:27:00,46.6,43.3,29.85,WSW,248,1.1,3.4,88,0.00,,,0.00,WUHU216HW,2013-03-19 14:27:00,
2013-03-19 10:32:00,47.0,43.7,29.85,South,180,2.0,3.4,88,0.00,,,0.00,WUHU216HW,2013-03-19 14:32:00,
2013-03-19 10:37:00,47.5,44.2,29.85,WSW,248,0.0,3.4,88,0.00,,,0.00,WUHU216HW,2013-03-19 14:37:00,
2013-03-19 10:42:00,47.9,44.6,29.85,NW,315,0.4,3.4,88,0.00,,,0.00,WUHU216HW,2013-03-19 14:42:00,
2013-03-19 10:47:00,48.1,44.4,29.85,West,270,0.4,2.5,87,0.00,,,0.00,WUHU216HW,2013-03-19 14:47:00,
2013-03-19 10:52:00,48.2,44.6,29.85,WSW,248,2.5,2.5,87,0.00,,,0.00,WUHU216HW,2013-03-19 14:52:00,
2013-03-19 10:57:00,48.6,44.9,29.85,WNW,293,2.5,2.5,87,0.00,,,0.00,WUHU216HW,2013-03-19 14:57:00,
2013-03-19 11:02:00,48.8,44.7,29.85,NNW,338,0.4,2.7,86,0.00,,,0.00,WUHU216HW,2013-03-19 15:02:00,
2013-03-19 11:07:00,49.1,44.8,29.85,WSW,248,1.3,2.7,85,0.00,,,0.00,WUHU216HW,2013-03-19 15:07:00,
2013-03-19 11:12:00,49.3,44.7,29.86,NNW,338,3.4,4.0,84,0.00,,,0.00,WUHU216HW,2013-03-19 15:12:00,
2013-03-19 11:17:00,49.7,45.3,29.86,West,270,2.7,4.0,85,0.00,,,0.00,WUHU216HW,2013-03-19 15:17:00,
2013-03-19 11:22:00,50.2,45.6,29.86,North,0,2.0,3.4,84,0.00,,,0.00,WUHU216HW,2013-03-19 15:22:00,
2013-03-19 11:27:00,50.8,46.1,29.86,West,270,0.2,2.9,84,0.00,,,0.00,WUHU216HW,2013-03-19 15:27:00,
2013-03-19 11:32:00,50.8,46.1,29.85,WSW,248,4.5,4.5,84,0.00,,,0.00,WUHU216HW,2013-03-19 15:32:00,
2013-03-19 11:37:00,50.9,45.9,29.85,WNW,293,1.3,4.5,83,0.00,,,0.00,WUHU216HW,2013-03-19 15:37:00,
2013-03-19 11:42:00,51.5,46.2,29.85,SSW,203,1.6,4.5,82,0.00,,,0.00,WUHU216HW,2013-03-19 15:42:00,
2013-03-19 11:47:00,51.8,46.5,29.85,WSW,248,1.6,3.4,82,0.00,,,0.00,WUHU216HW,2013-03-19 15:47:00,
2013-03-19 11:53:00,52.4,46.7,29.85,NNE,23,1.8,4.5,81,0.00,,,0.00,WUHU216HW,2013-03-19 15:53:00,
2013-03-19 11:57:00,52.6,46.6,29.85,West,270,4.3,4.7,80,0.00,,,0.00,WUHU216HW,2013-03-19 15:57:00,
2013-03-19 12:02:00,52.9,46.6,29.85,WSW,248,1.1,4.7,79,0.00,,,0.00,WUHU216HW,2013-03-19 16:02:00,
2013-03-19 12:07:00,53.3,46.6,29.85,West,270,1.8,6.3,78,0.00,,,0.00,WUHU216HW,2013-03-19 16:07:00,
2013-03-19 12:12:00,53.6,47.0,29.84,SW,225,4.0,6.3,78,0.00,,,0.00,WUHU216HW,2013-03-19 16:12:00,
2013-03-19 12:17:00,54.2,46.5,29.84,SSW,203,2.5,5.4,75,0.00,,,0.00,WUHU216HW,2013-03-19 16:17:00,
2013-03-19 12:22:00,54.4,46.6,29.84,NNW,338,0.4,4.7,75,0.00,,,0.00,WUHU216HW,2013-03-19 16:22:00,
2013-03-19 12:27:00,54.9,46.1,29.84,WNW,293,1.8,4.7,72,0.00,,,0.00,WUHU216HW,2013-03-19 16:27:00,
2013-03-19 12:32:00,55.4,45.9,29.83,West,270,3.4,4.0,70,0.00,,,0.00,WUHU216HW,2013-03-19 16:32:00,
2013-03-19 12:37:00,55.8,45.4,29.83,WSW,248,5.8,5.8,68,0.00,,,0.00,WUHU216HW,2013-03-19 16:37:00,
2013-03-19 12:42:00,56.3,45.9,29.83,West,270,1.1,5.8,68,0.00,,,0.00,WUHU216HW,2013-03-19 16:42:00,
2013-03-19 12:47:00,56.7,45.8,29.83,West,270,5.8,5.8,67,0.00,,,0.00,WUHU216HW,2013-03-19 16:47:00,
2013-03-19 12:53:00,57.2,44.7,29.82,North,0,1.6,5.8,63,0.00,,,0.00,WUHU216HW,2013-03-19 16:53:00,
2013-03-19 12:58:00,57.8,45.6,29.82,West,270,4.0,4.3,64,0.00,,,0.00,WUHU216HW,2013-03-19 16:58:00,
2013-03-19 13:03:00,58.0,43.3,29.82,NW,315,2.7,4.3,58,0.00,,,0.00,WUHU216HW,2013-03-19 17:03:00,
2013-03-19 13:08:00,58.9,44.1,29.82,West,270,1.1,3.8,58,0.00,,,0.00,WUHU216HW,2013-03-19 17:08:00,
2013-03-19 13:13:00,59.6,45.3,29.82,SW,225,1.6,4.7,59,0.00,,,0.00,WUHU216HW,2013-03-19 17:13:00,
2013-03-19 13:18:00,60.1,44.8,29.82,SSW,203,0.4,4.9,57,0.00,,,0.00,WUHU216HW,2013-03-19 17:18:00,
2013-03-19 13:23:00,60.8,44.6,29.82,NNW,338,3.1,4.9,55,0.00,,,0.00,WUHU216HW,2013-03-19 17:23:00,
2013-03-19 13:28:00,61.4,44.1,29.81,West,270,0.4,5.1,53,0.00,,,0.00,WUHU216HW,2013-03-19 17:28:00,
2013-03-19 13:33:00,62.1,44.2,29.82,West,270,2.5,6.0,52,0.00,,,0.00,WUHU216HW,2013-03-19 17:33:00,
2013-03-19 13:38:00,62.6,43.7,29.82,West,270,5.4,6.0,50,0.00,,,0.00,WUHU216HW,2013-03-19 17:38:00,
2013-03-19 13:43:00,62.8,43.9,29.81,West,270,4.9,7.6,50,0.00,,,0.00,WUHU216HW,2013-03-19 17:43:00,
2013-03-19 13:48:00,63.2,42.5,29.81,WSW,248,3.1,7.6,47,0.00,,,0.00,WUHU216HW,2013-03-19 17:48:00,
2013-03-19 13:53:00,63.7,43.0,29.81,West,270,2.5,5.6,47,0.00,,,0.00,WUHU216HW,2013-03-19 17:53:00,
2013-03-19 13:58:00,64.3,44.0,29.81,North,0,1.8,5.6,48,0.00,,,0.00,WUHU216HW,2013-03-19 17:58:00,
2013-03-19 14:03:00,64.8,43.4,29.81,NW,315,1.1,5.4,46,0.00,,,0.00,WUHU216HW,2013-03-19 18:03:00,
2013-03-19 14:08:00,65.0,42.4,29.81,South,180,4.3,8.1,44,0.00,,,0.00,WUHU216HW,2013-03-19 18:08:00,
2013-03-19 14:13:00,65.2,43.2,29.81,WNW,293,4.7,8.1,45,0.00,,,0.00,WUHU216HW,2013-03-19 18:13:00,
2013-03-19 14:18:00,65.3,43.9,29.80,West,270,4.3,6.0,46,0.00,,,0.00,WUHU216HW,2013-03-19 18:18:00,
2013-03-19 14:23:00,65.5,41.8,29.80,NNW,338,3.4,6.0,42,0.00,,,0.00,WUHU216HW,2013-03-19 18:23:00,
2013-03-19 14:28:00,65.7,40.8,29.81,WSW,248,4.5,5.8,40,0.00,,,0.00,WUHU216HW,2013-03-19 18:28:00,
2013-03-19 14:33:00,65.7,42.0,29.80,West,270,3.8,5.8,42,0.00,,,0.00,WUHU216HW,2013-03-19 18:33:00,
2013-03-19 14:38:00,65.7,40.8,29.80,WSW,248,3.1,5.4,40,0.00,,,0.00,WUHU216HW,2013-03-19 18:38:00,
2013-03-19 14:43:00,65.9,42.1,29.80,SW,225,1.6,5.8,42,0.00,,,0.00,WUHU216HW,2013-03-19 18:43:00,
2013-03-19 14:48:00,65.7,37.9,29.80,West,270,2.5,6.5,36,0.00,,,0.00,WUHU216HW,2013-03-19 18:48:00,
2013-03-19 14:53:00,65.7,36.5,29.80,East,90,2.0,6.5,34,0.00,,,0.00,WUHU216HW,2013-03-19 18:53:00,
2013-03-19 14:58:00,65.9,40.1,29.80,SW,225,2.5,5.8,39,0.00,,,0.00,WUHU216HW,2013-03-19 18:58:00,
2013-03-19 15:04:00,66.2,40.5,29.80,West,270,3.4,6.3,39,0.00,,,0.00,WUHU216HW,2013-03-19 19:04:00,
2013-03-19 15:08:00,66.2,39.1,29.80,West,270,4.3,6.3,37,0.00,,,0.00,WUHU216HW,2013-03-19 19:08:00,
2013-03-19 15:13:00,66.2,38.3,29.80,NNW,338,2.9,6.3,36,0.00,,,0.00,WUHU216HW,2013-03-19 19:13:00,
2013-03-19 15:18:00,66.2,38.3,29.80,NNW,338,1.1,4.7,36,0.00,,,0.00,WUHU216HW,2013-03-19 19:18:00,
2013-03-19 15:23:00,65.9,36.5,29.79,WNW,293,2.7,8.5,34,0.00,,,0.00,WUHU216HW,2013-03-19 19:23:00,
2013-03-19 15:28:00,66.1,38.2,29.79,West,270,2.9,8.5,36,0.00,,,0.00,WUHU216HW,2013-03-19 19:28:00,
2013-03-19 15:33:00,66.6,37.9,29.79,WSW,248,4.0,6.7,35,0.00,,,0.00,WUHU216HW,2013-03-19 19:33:00,
2013-03-19 15:38:00,66.8,35.2,29.79,WNW,293,2.5,6.7,31,0.00,,,0.00,WUHU216HW,2013-03-19 19:38:00,
2013-03-19 15:43:00,67.0,37.5,29.80,West,270,2.9,6.5,34,0.00,,,0.00,WUHU216HW,2013-03-19 19:43:00,
2013-03-19 15:48:00,67.0,37.5,29.79,NW,315,1.8,5.4,34,0.00,,,0.00,WUHU216HW,2013-03-19 19:48:00,
2013-03-19 15:53:00,67.0,36.8,29.79,WSW,248,7.2,7.2,33,0.00,,,0.00,WUHU216HW,2013-03-19 19:53:00,
2013-03-19 15:58:00,67.1,36.9,29.79,West,270,4.9,7.2,33,0.00,,,0.00,WUHU216HW,2013-03-19 19:58:00,
2013-03-19 16:03:00,67.3,37.1,29.80,WSW,248,4.3,7.2,33,0.00,,,0.00,WUHU216HW,2013-03-19 20:03:00,
2013-03-19 16:08:00,67.3,35.7,29.80,WNW,293,2.0,6.3,31,0.00,,,0.00,WUHU216HW,2013-03-19 20:08:00,
2013-03-19 16:13:00,67.3,35.7,29.80,SW,225,5.1,6.9,31,0.00,,,0.00,WUHU216HW,2013-03-19 20:13:00,
2013-03-19 16:18:00,67.3,37.1,29.80,WSW,248,3.8,6.9,33,0.00,,,0.00,WUHU216HW,2013-03-19 20:18:00,
2013-03-19 16:23:00,67.5,35.7,29.80,NW,315,3.1,5.1,31,0.00,,,0.00,WUHU216HW,2013-03-19 20:23:00,
2013-03-19 16:28:00,67.3,34.9,29.80,WNW,293,4.7,6.0,30,0.00,,,0.00,WUHU216HW,2013-03-19 20:28:00,
2013-03-19 16:33:00,67.3,36.4,29.80,West,270,4.0,6.0,32,0.00,,,0.00,WUHU216HW,2013-03-19 20:33:00,
2013-03-19 16:38:00,67.3,34.9,29.80,NW,315,2.5,6.0,30,0.00,,,0.00,WUHU216HW,2013-03-19 20:38:00,
2013-03-19 16:43:00,67.3,34.9,29.80,SSW,203,2.0,8.1,30,0.00,,,0.00,WUHU216HW,2013-03-19 20:43:00,
2013-03-19 16:48:00,67.3,35.7,29.80,South,180,4.7,8.1,31,0.00,,,0.00,WUHU216HW,2013-03-19 20:48:00,
2013-03-19 16:53:00,67.1,34.7,29.80,WSW,248,4.5,6.3,30,0.00,,,0.00,WUHU216HW,2013-03-19 20:53:00,
2013-03-19 16:58:00,67.1,35.5,29.80,SW,225,2.5,7.2,31,0.00,,,0.00,WUHU216HW,2013-03-19 20:58:00,
2013-03-19 17:03:00,67.1,33.8,29.80,NW,315,4.3,7.2,29,0.00,,,0.00,WUHU216HW,2013-03-19 21:03:00,
2013-03-19 17:08:00,67.0,32.6,29.81,West,270,4.7,6.3,28,0.00,,,0.00,WUHU216HW,2013-03-19 21:08:00,
2013-03-19 17:13:00,66.8,32.5,29.81,WNW,293,4.0,6.3,28,0.00,,,0.00,WUHU216HW,2013-03-19 21:13:00,
2013-03-19 17:18:00,66.6,30.3,29.81,West,270,4.3,6.0,26,0.00,,,0.00,WUHU216HW,2013-03-19 21:18:00,
2013-03-19 17:23:00,66.6,29.3,29.81,WNW,293,4.9,5.4,25,0.00,,,0.00,WUHU216HW,2013-03-19 21:23:00,
2013-03-19 17:28:00,66.4,32.1,29.81,WNW,293,2.9,5.4,28,0.00,,,0.00,WUHU216HW,2013-03-19 21:28:00,
2013-03-19 17:34:00,66.2,30.0,29.82,NNW,338,3.1,5.4,26,0.00,,,0.00,WUHU216HW,2013-03-19 21:34:00,
2013-03-19 17:39:00,66.2,33.0,29.82,West,270,1.8,5.4,29,0.00,,,0.00,WUHU216HW,2013-03-19 21:39:00,
2013-03-19 17:44:00,66.1,28.8,29.82,WSW,248,4.7,6.9,25,0.00,,,0.00,WUHU216HW,2013-03-19 21:44:00,
2013-03-19 17:49:00,65.9,31.7,29.82,WSW,248,4.7,6.9,28,0.00,,,0.00,WUHU216HW,2013-03-19 21:49:00,
2013-03-19 17:54:00,65.9,31.7,29.82,WSW,248,5.4,6.9,28,0.00,,,0.00,WUHU216HW,2013-03-19 21:54:00,
2013-03-19 17:59:00,65.5,30.3,29.82,West,270,4.7,6.0,27,0.00,,,0.00,WUHU216HW,2013-03-19 21:59:00,
2013-03-19 18:04:00,65.5,33.4,29.82,WSW,248,3.1,6.0,30,0.00,,,0.00,WUHU216HW,2013-03-19 22:04:00,
2013-03-19 18:09:00,65.3,33.2,29.82,West,270,3.8,5.1,30,0.00,,,0.00,WUHU216HW,2013-03-19 22:09:00,
2013-03-19 18:14:00,65.2,33.0,29.82,West,270,2.7,5.1,30,0.00,,,0.00,WUHU216HW,2013-03-19 22:14:00,
2013-03-19 18:19:00,65.2,33.0,29.82,West,270,4.0,4.3,30,0.00,,,0.00,WUHU216HW,2013-03-19 22:19:00,
2013-03-19 18:24:00,65.2,33.0,29.82,NW,315,2.5,5.1,30,0.00,,,0.00,WUHU216HW,2013-03-19 22:24:00,
2013-03-19 18:29:00,64.8,32.8,29.82,West,270,3.6,5.1,30,0.00,,,0.00,WUHU216HW,2013-03-19 22:29:00,
2013-03-19 18:34:00,64.8,31.8,29.82,West,270,4.0,6.7,29,0.00,,,0.00,WUHU216HW,2013-03-19 22:34:00,
2013-03-19 18:39:00,64.4,28.4,29.83,SW,225,2.9,6.7,26,0.00,,,0.00,WUHU216HW,2013-03-19 22:39:00,
2013-03-19 18:44:00,64.3,30.2,29.83,WNW,293,3.1,6.5,28,0.00,,,0.00,WUHU216HW,2013-03-19 22:44:00,
2013-03-19 18:49:00,64.1,30.1,29.84,West,270,3.4,6.5,28,0.00,,,0.00,WUHU216HW,2013-03-19 22:49:00,
2013-03-19 18:54:00,63.9,27.0,29.84,West,270,3.4,7.6,25,0.00,,,0.00,WUHU216HW,2013-03-19 22:54:00,
2013-03-19 18:59:00,63.7,26.8,29.84,WNW,293,3.4,7.6,25,0.00,,,0.00,WUHU216HW,2013-03-19 22:59:00,
2013-03-19 19:04:00,63.5,28.6,29.85,WNW,293,2.2,5.1,27,0.00,,,0.00,WUHU216HW,2013-03-19 23:04:00,
2013-03-19 19:09:00,63.4,26.6,29.85,West,270,4.3,5.1,25,0.00,,,0.00,WUHU216HW,2013-03-19 23:09:00,
2013-03-19 19:14:00,63.0,27.2,29.85,West,270,1.6,5.6,26,0.00,,,0.00,WUHU216HW,2013-03-19 23:14:00,
2013-03-19 19:19:00,62.8,27.1,29.85,West,270,4.5,5.6,26,0.00,,,0.00,WUHU216HW,2013-03-19 23:19:00,
2013-03-19 19:24:00,62.6,26.9,29.86,WNW,293,2.0,4.5,26,0.00,,,0.00,WUHU216HW,2013-03-19 23:24:00,
2013-03-19 19:29:00,62.3,27.5,29.86,WNW,293,1.6,4.0,27,0.00,,,0.00,WUHU216HW,2013-03-19 23:29:00,
2013-03-19 19:34:00,62.1,27.4,29.86,WSW,248,3.8,3.8,27,0.00,,,0.00,WUHU216HW,2013-03-19 23:34:00,
2013-03-19 19:39:00,61.9,26.3,29.87,WSW,248,2.7,3.8,26,0.00,,,0.00,WUHU216HW,2013-03-19 23:39:00,
2013-03-19 19:44:00,61.7,27.1,29.87,West,270,2.7,3.8,27,0.00,,,0.00,WUHU216HW,2013-03-19 23:44:00,
2013-03-19 19:49:00,61.6,26.9,29.87,WNW,293,2.2,4.0,27,0.00,,,0.00,WUHU216HW,2013-03-19 23:49:00,
2013-03-19 19:54:00,61.4,26.7,29.87,WNW,293,2.2,4.0,27,0.00,,,0.00,WUHU216HW,2013-03-19 23:54:00,
2013-03-19 19:59:00,61.2,27.5,29.87,WNW,293,2.5,3.1,28,0.00,,,0.00,WUHU216HW,2013-03-19 23:59:00,
2013-03-19 20:04:00,61.0,27.5,29.87,West,270,1.1,3.1,28,0.00,,,0.00,WUHU216HW,2013-03-20 00:04:00,
2013-03-19 20:09:00,60.8,28.2,29.87,West,270,2.0,2.5,29,0.00,,,0.00,WUHU216HW,2013-03-20 00:09:00,
2013-03-19 20:14:00,60.7,29.0,29.87,West,270,1.8,3.4,30,0.00,,,0.00,WUHU216HW,2013-03-20 00:14:00,
2013-03-19 20:19:00,60.5,28.9,29.87,WSW,248,1.6,3.4,30,0.00,,,0.00,WUHU216HW,2013-03-20 00:19:00,
2013-03-19 20:24:00,60.3,28.7,29.88,WSW,248,2.2,2.9,30,0.00,,,0.00,WUHU216HW,2013-03-20 00:24:00,
2013-03-19 20:29:00,60.1,29.4,29.88,West,270,2.2,2.7,31,0.00,,,0.00,WUHU216HW,2013-03-20 00:29:00,
2013-03-19 20:34:00,59.9,29.2,29.88,West,270,1.6,2.7,31,0.00,,,0.00,WUHU216HW,2013-03-20 00:34:00,
2013-03-19 20:39:00,59.8,29.0,29.88,WSW,248,2.2,2.5,31,0.00,,,0.00,WUHU216HW,2013-03-20 00:39:00,
2013-03-19 20:44:00,59.6,28.9,29.89,West,270,1.3,2.5,31,0.00,,,0.00,WUHU216HW,2013-03-20 00:44:00,
2013-03-19 20:49:00,59.4,28.7,29.90,WSW,248,0.9,2.5,31,0.00,,,0.00,WUHU216HW,2013-03-20 00:49:00,
2013-03-19 20:54:00,59.2,29.3,29.90,West,270,2.0,2.5,32,0.00,,,0.00,WUHU216HW,2013-03-20 00:54:00,
2013-03-19 20:59:00,59.0,29.2,29.90,WNW,293,1.6,2.5,32,0.00,,,0.00,WUHU216HW,2013-03-20 00:59:00,
2013-03-19 21:04:00,58.9,29.0,29.90,WNW,293,1.1,2.0,32,0.00,,,0.00,WUHU216HW,2013-03-20 01:04:00,
2013-03-19 21:09:00,58.7,29.5,29.90,West,270,1.8,2.0,33,0.00,,,0.00,WUHU216HW,2013-03-20 01:09:00,
2013-03-19 21:14:00,58.5,29.3,29.91,West,270,2.2,2.5,33,0.00,,,0.00,WUHU216HW,2013-03-20 01:14:00,
2013-03-19 21:19:00,58.3,29.2,29.91,WNW,293,1.1,2.5,33,0.00,,,0.00,WUHU216HW,2013-03-20 01:19:00,
2013-03-19 21:24:00,58.1,29.0,29.92,West,270,1.8,2.5,33,0.00,,,0.00,WUHU216HW,2013-03-20 01:24:00,
2013-03-19 21:29:00,58.0,28.9,29.92,West,270,1.8,3.1,33,0.00,,,0.00,WUHU216HW,2013-03-20 01:29:00,
2013-03-19 21:34:00,57.8,28.7,29.92,WNW,293,1.6,3.1,33,0.00,,,0.00,WUHU216HW,2013-03-20 01:34:00,
2013-03-19 21:39:00,57.6,28.5,29.92,WNW,293,2.0,2.9,33,0.00,,,0.00,WUHU216HW,2013-03-20 01:39:00,
2013-03-19 21:44:00,57.4,27.6,29.93,WSW,248,4.3,4.3,32,0.00,,,0.00,WUHU216HW,2013-03-20 01:44:00,
2013-03-19 21:49:00,57.2,28.2,29.93,West,270,1.8,4.3,33,0.00,,,0.00,WUHU216HW,2013-03-20 01:49:00,
2013-03-19 21:54:00,57.2,26.8,29.93,WNW,293,5.1,5.1,31,0.00,,,0.00,WUHU216HW,2013-03-20 01:54:00,
2013-03-19 21:59:00,57.2,27.6,29.93,NW,315,3.1,5.1,32,0.00,,,0.00,WUHU216HW,2013-03-20 01:59:00,
2013-03-19 22:04:00,57.1,27.4,29.93,WNW,293,1.6,5.1,32,0.00,,,0.00,WUHU216HW,2013-03-20 02:04:00,
2013-03-19 22:09:00,56.9,27.9,29.94,WNW,293,0.2,3.1,33,0.00,,,0.00,WUHU216HW,2013-03-20 02:09:00,
2013-03-19 22:14:00,56.7,27.7,29.94,WNW,293,1.1,2.7,33,0.00,,,0.00,WUHU216HW,2013-03-20 02:14:00,
2013-03-19 22:19:00,56.7,27.7,29.95,WNW,293,1.8,2.5,33,0.00,,,0.00,WUHU216HW,2013-03-20 02:19:00,
2013-03-19 22:24:00,56.5,27.5,29.95,NW,315,0.9,2.0,33,0.00,,,0.00,WUHU216HW,2013-03-20 02:24:00,
2013-03-19 22:29:00,56.3,27.4,29.95,WNW,293,1.1,2.0,33,0.00,,,0.00,WUHU216HW,2013-03-20 02:29:00,
2013-03-19 22:34:00,56.2,27.3,29.95,WNW,293,1.3,1.8,33,0.00,,,0.00,WUHU216HW,2013-03-20 02:34:00,
2013-03-19 22:39:00,56.0,27.1,29.95,WNW,293,1.1,1.8,33,0.00,,,0.00,WUHU216HW,2013-03-20 02:39:00,
2013-03-19 22:44:00,55.8,26.9,29.95,NW,315,0.9,1.8,33,0.00,,,0.00,WUHU216HW,2013-03-20 02:44:00,
2013-03-19 22:49:00,55.4,26.6,29.95,NW,315,0.7,2.0,33,0.00,,,0.00,WUHU216HW,2013-03-20 02:49:00,
2013-03-19 22:54:00,55.3,25.8,29.95,NW,315,1.6,2.5,32,0.00,,,0.00,WUHU216HW,2013-03-20 02:54:00,
2013-03-19 22:59:00,55.1,24.9,29.96,NNW,338,1.6,3.4,31,0.00,,,0.00,WUHU216HW,2013-03-20 02:59:00,
2013-03-19 23:04:00,55.1,24.9,29.96,NNW,338,0.9,3.4,31,0.00,,,0.00,WUHU216HW,2013-03-20 03:04:00,
2013-03-19 23:09:00,54.7,24.0,29.96,NW,315,2.5,2.7,30,0.00,,,0.00,WUHU216HW,2013-03-20 03:09:00,
2013-03-19 23:14:00,54.7,24.6,29.96,WNW,293,2.5,2.9,31,0.00,,,0.00,WUHU216HW,2013-03-20 03:14:00,
2013-03-19 23:19:00,54.5,22.9,29.96,West,270,2.0,3.4,29,0.00,,,0.00,WUHU216HW,2013-03-20 03:19:00,
2013-03-19 23:24:00,54.4,21.7,29.96,NW,315,2.0,4.7,28,0.00,,,0.00,WUHU216HW,2013-03-20 03:24:00,
2013-03-19 23:29:00,54.4,21.7,29.97,NW,315,1.8,4.7,28,0.00,,,0.00,WUHU216HW,2013-03-20 03:29:00,
2013-03-19 23:34:00,54.2,21.6,29.97,NW,315,1.1,2.7,28,0.00,,,0.00,WUHU216HW,2013-03-20 03:34:00,
2013-03-19 23:39:00,54.0,20.5,29.97,NNW,338,1.6,4.5,27,0.00,,,0.00,WUHU216HW,2013-03-20 03:39:00,
2013-03-19 23:44:00,53.8,20.4,29.97,NW,315,2.5,4.5,27,0.00,,,0.00,WUHU216HW,2013-03-20 03:44:00,
2013-03-19 23:49:00,53.6,20.2,29.97,NW,315,2.5,3.8,27,0.00,,,0.00,WUHU216HW,2013-03-20 03:49:00,
2013-03-19 23:54:00,53.6,20.2,29.97,West,270,1.8,3.8,27,0.00,,,0.00,WUHU216HW,2013-03-20 03:54:00,
2013-03-19 23:59:00,53.5,20.0,29.97,NNW,338,0.9,3.1,27,0.00,,,0.00,WUHU216HW,2013-03-20 03:59:00,